Terminal Aerodrome Forecast
Issued by NWS

Home | Current Version | Previous Version | Text Only | Print | Product List | Glossary On
Versions: 1 2 3 4 5 6 7 8 9 10 11 12 13 14 15 16 17 18 19 20 21 22 23
000
FTUS46 KMFR 222331
TAFRBG
TAF
KRBG 222331Z 2300/2324 35006KT P6SM -SHRA BKN030 OVC050
     FM230600 00000KT P6SM SCT008 OVC020
     FM231100 00000KT 4SM BR BKN005 OVC020
     FM231800 VRB03KT P6SM -SHRA BKN030 OVC050=

USA.gov is the U.S. government's official web portal to all federal, state and local government web resources and services.